createdAt,value
2023-03-04T00:00:59.047Z,97660.39
2023-03-04T00:03:27.737Z,97657.29
2023-03-04T00:05:56.145Z,97655.91
2023-03-04T00:08:24.258Z,97656.20
2023-03-04T00:10:52.638Z,97655.64
2023-03-04T00:13:22.141Z,97656.25
2023-03-04T00:15:50.813Z,97655.33
2023-03-04T00:18:21.353Z,97655.23
2023-03-04T00:20:52.368Z,97659.78
2023-03-04T00:23:20.636Z,97661.07
2023-03-04T00:25:49.184Z,97662.23
2023-03-04T00:28:17.500Z,97663.46
2023-03-04T00:30:45.623Z,97660.74
2023-03-04T00:33:13.752Z,97655.80
2023-03-04T00:35:42.238Z,97655.52
2023-03-04T00:38:10.436Z,97655.05
2023-03-04T00:40:39.236Z,97656.00
2023-03-04T00:43:07.833Z,97653.13
2023-03-04T00:45:36.009Z,97650.58
2023-03-04T00:48:04.271Z,97649.74
2023-03-04T00:50:32.572Z,97646.65
2023-03-04T00:53:02.031Z,97646.81
2023-03-04T00:55:30.677Z,97647.98
2023-03-04T00:57:59.105Z,97644.67
2023-03-04T01:00:27.233Z,97643.23
2023-03-04T01:02:56.399Z,97643.67
2023-03-04T01:05:24.587Z,97645.31
2023-03-04T01:07:53.166Z,97645.54
2023-03-04T01:10:21.977Z,97646.13
2023-03-04T01:12:50.352Z,97646.20
2023-03-04T01:15:19.055Z,97642.98
2023-03-04T01:17:48.204Z,97641.83
2023-03-04T01:20:17.445Z,97643.77
2023-03-04T01:22:45.713Z,97639.34
2023-03-04T01:25:16.410Z,97634.76
2023-03-04T01:27:45.315Z,97634.66
2023-03-04T01:30:14.084Z,97631.46
2023-03-04T01:32:42.621Z,97632.80
2023-03-04T01:35:11.054Z,97631.89
2023-03-04T01:37:39.237Z,97626.88
2023-03-04T01:40:08.821Z,97628.60
2023-03-04T01:42:40.187Z,97627.56
2023-03-04T01:45:19.218Z,97623.98
2023-03-04T01:47:49.386Z,97619.52
2023-03-04T01:50:20.684Z,97614.39
2023-03-04T01:52:49.185Z,97611.30
2023-03-04T01:55:20.706Z,97613.90
2023-03-04T01:57:50.741Z,97616.48
2023-03-04T02:00:27.768Z,97619.56
2023-03-04T02:03:00.313Z,97613.85
2023-03-04T02:05:30.571Z,97608.96
2023-03-04T02:08:01.869Z,97605.25
2023-03-04T02:10:35.409Z,97604.79
2023-03-04T02:13:07.297Z,97605.16
2023-03-04T02:15:36.002Z,97598.85
2023-03-04T02:18:15.287Z,97600.61
2023-03-04T02:20:49.382Z,97595.48
2023-03-04T02:23:42.747Z,97597.07
2023-03-04T02:26:17.846Z,97594.05
2023-03-04T02:28:49.315Z,97594.65
2023-03-04T02:31:26.119Z,97595.94
2023-03-04T02:33:58.306Z,97592.93
2023-03-04T02:36:30.066Z,97590.48
2023-03-04T02:39:11.805Z,97588.29
2023-03-04T02:41:40.933Z,97588.51
2023-03-04T02:44:23.407Z,97588.73
2023-03-04T02:46:53.168Z,97589.33
2023-03-04T02:49:23.498Z,97587.49
2023-03-04T02:51:54.005Z,97586.56
2023-03-04T02:54:24.597Z,97588.65
2023-03-04T02:56:55.641Z,97585.63
2023-03-04T02:59:24.782Z,97581.00
2023-03-04T03:01:53.901Z,97579.44
2023-03-04T03:04:24.323Z,97579.06
2023-03-04T03:06:54.305Z,97573.52
2023-03-04T03:09:23.196Z,97572.60
2023-03-04T03:11:51.533Z,97569.93
2023-03-04T03:14:19.705Z,97575.67
2023-03-04T03:16:48.026Z,97574.36
2023-03-04T03:19:16.549Z,97570.81
2023-03-04T03:21:44.878Z,97569.52
2023-03-04T03:24:12.950Z,97570.80
2023-03-04T03:26:41.452Z,97569.85
2023-03-04T03:29:09.788Z,97572.34
2023-03-04T03:31:38.645Z,97570.39
2023-03-04T03:34:08.266Z,97572.23
2023-03-04T03:36:36.638Z,97569.95
2023-03-04T03:39:05.558Z,97567.69
2023-03-04T03:41:34.026Z,97568.02
2023-03-04T03:44:02.339Z,97567.17
2023-03-04T03:46:30.497Z,97566.52
2023-03-04T03:48:58.802Z,97568.80
2023-03-04T03:51:27.594Z,97569.88
2023-03-04T03:53:56.078Z,97572.50
2023-03-04T03:56:24.504Z,97574.74
2023-03-04T03:58:53.096Z,97570.11
2023-03-04T04:01:21.510Z,97567.02
2023-03-04T04:03:50.069Z,97567.73
2023-03-04T04:06:18.382Z,97565.35
2023-03-04T04:08:46.747Z,97565.84
2023-03-04T04:11:15.069Z,97562.38
2023-03-04T04:13:44.373Z,97564.73
2023-03-04T04:16:12.873Z,97568.77
2023-03-04T04:18:41.493Z,97568.66
2023-03-04T04:21:10.105Z,97565.45
2023-03-04T04:23:38.478Z,97566.34
2023-03-04T04:26:06.645Z,97565.56
2023-03-04T04:28:35.004Z,97569.80
2023-03-04T04:31:03.373Z,97570.25
2023-03-04T04:33:31.626Z,97568.39
2023-03-04T04:36:01.510Z,97566.55
2023-03-04T04:38:30.355Z,97567.27
2023-03-04T04:40:59.799Z,97569.48
2023-03-04T04:43:28.113Z,97568.77
2023-03-04T04:45:56.327Z,97565.69
2023-03-04T04:48:24.480Z,97562.80
2023-03-04T04:50:56.777Z,97565.75
2023-03-04T04:53:25.280Z,97567.20
2023-03-04T04:55:53.755Z,97564.89
2023-03-04T04:58:22.145Z,97565.98
2023-03-04T05:00:50.841Z,97564.97
2023-03-04T05:03:20.958Z,97566.50
2023-03-04T05:05:50.804Z,97570.26
2023-03-04T05:08:19.421Z,97568.65
2023-03-04T05:10:48.538Z,97569.96
2023-03-04T05:13:17.155Z,97570.55
2023-03-04T05:15:46.757Z,97569.28
2023-03-04T05:18:15.314Z,97569.55
2023-03-04T05:20:43.645Z,97572.40
2023-03-04T05:23:12.154Z,97575.30
2023-03-04T05:25:40.822Z,97572.89
2023-03-04T05:28:12.733Z,97573.45
2023-03-04T05:30:43.425Z,97568.87
2023-03-04T05:33:14.394Z,97566.77
2023-03-04T05:35:44.194Z,97565.97
2023-03-04T05:38:15.223Z,97564.66
2023-03-04T05:40:44.469Z,97563.02
2023-03-04T05:43:13.888Z,97564.16
2023-03-04T05:45:42.828Z,97563.89
2023-03-04T05:48:11.652Z,97560.44
2023-03-04T05:50:40.107Z,97557.64
2023-03-04T05:53:08.479Z,97556.29
2023-03-04T05:55:37.070Z,97553.11
2023-03-04T05:58:05.562Z,97545.49
2023-03-04T06:00:34.079Z,97541.67
2023-03-04T06:03:02.579Z,97544.77
2023-03-04T06:05:30.842Z,97546.04
2023-03-04T06:07:59.834Z,97545.36
2023-03-04T06:10:28.069Z,97544.80
2023-03-04T06:12:56.327Z,97542.72
2023-03-04T06:15:24.772Z,97545.85
2023-03-04T06:17:55.492Z,97547.66
2023-03-04T06:20:23.981Z,97545.34
2023-03-04T06:22:52.600Z,97545.23
2023-03-04T06:25:21.701Z,97542.86
2023-03-04T06:27:51.132Z,97540.65
2023-03-04T06:30:21.137Z,97538.23
2023-03-04T06:32:49.910Z,97538.02
2023-03-04T06:35:18.807Z,97538.27
2023-03-04T06:37:47.088Z,97538.52
2023-03-04T06:40:15.493Z,97540.14
2023-03-04T06:42:44.145Z,97538.12
2023-03-04T06:45:12.726Z,97534.34
2023-03-04T06:47:41.774Z,97534.52
2023-03-04T06:50:12.560Z,97535.91
2023-03-04T06:52:41.309Z,97538.70
2023-03-04T06:55:10.314Z,97535.36
2023-03-04T06:57:38.653Z,97537.14
2023-03-04T07:00:07.640Z,97539.49
2023-03-04T07:02:36.082Z,97536.73
2023-03-04T07:05:04.713Z,97536.05
2023-03-04T07:07:33.003Z,97534.42
2023-03-04T07:10:01.785Z,97533.28
2023-03-04T07:12:30.165Z,97529.88
2023-03-04T07:14:58.855Z,97531.21
2023-03-04T07:17:27.407Z,97527.11
2023-03-04T07:19:56.333Z,97527.45
2023-03-04T07:22:24.466Z,97526.52
2023-03-04T07:24:52.585Z,97525.67
2023-03-04T07:27:20.976Z,97517.56
2023-03-04T07:29:49.255Z,97516.38
2023-03-04T07:32:17.407Z,97515.40
2023-03-04T07:34:45.499Z,97511.81
2023-03-04T07:37:13.572Z,97508.80
2023-03-04T07:39:41.811Z,97504.24
2023-03-04T07:42:09.819Z,97498.30
2023-03-04T07:44:40.203Z,97499.34
2023-03-04T07:47:08.622Z,97495.02
2023-03-04T07:49:37.002Z,97496.13
2023-03-04T07:52:06.050Z,97496.27
2023-03-04T07:54:34.417Z,97496.27
2023-03-04T07:57:02.828Z,97493.15
2023-03-04T07:59:31.134Z,97492.81
2023-03-04T08:01:59.783Z,97484.65
2023-03-04T08:04:28.137Z,97483.34
2023-03-04T08:06:56.737Z,97485.14
2023-03-04T08:09:25.203Z,97484.23
2023-03-04T08:11:53.798Z,97479.06
2023-03-04T08:14:21.999Z,97478.63
2023-03-04T08:16:50.066Z,97481.25
2023-03-04T08:19:18.197Z,97480.23
2023-03-04T08:21:46.735Z,97478.67
2023-03-04T08:24:15.114Z,97479.23
2023-03-04T08:26:47.011Z,97476.55
2023-03-04T08:29:20.749Z,97479.49
2023-03-04T08:31:50.630Z,97471.06
2023-03-04T08:34:21.448Z,97466.61
2023-03-04T08:36:50.204Z,97466.07
2023-03-04T08:39:19.450Z,97468.15
2023-03-04T08:41:48.912Z,97468.04
2023-03-04T08:44:17.546Z,97462.30
2023-03-04T08:46:46.188Z,97459.61
2023-03-04T08:49:15.312Z,97457.34
2023-03-04T08:51:45.610Z,97453.83
2023-03-04T08:54:14.040Z,97449.52
2023-03-04T08:56:42.781Z,97445.42
2023-03-04T08:59:11.296Z,97444.48
2023-03-04T09:01:39.907Z,97441.76
2023-03-04T09:04:08.262Z,97443.10
2023-03-04T09:06:36.869Z,97438.10
2023-03-04T09:09:05.514Z,97433.02
2023-03-04T09:11:33.936Z,97430.21
2023-03-04T09:14:02.070Z,97431.24
2023-03-04T09:16:30.414Z,97425.41
2023-03-04T09:19:00.827Z,97420.04
2023-03-04T09:21:29.223Z,97418.18
2023-03-04T09:23:57.791Z,97415.46
2023-03-04T09:26:29.291Z,97415.86
2023-03-04T09:29:00.430Z,97411.86
2023-03-04T09:31:30.055Z,97408.95
2023-03-04T09:33:59.584Z,97403.58
2023-03-04T09:36:28.030Z,97405.73
2023-03-04T09:39:00.970Z,97400.61
2023-03-04T09:41:39.360Z,97398.27
2023-03-04T09:44:36.973Z,97400.03
2023-03-04T09:47:11.927Z,97398.70
2023-03-04T09:49:44.205Z,97396.39
2023-03-04T09:52:24.803Z,97392.39
2023-03-04T09:55:15.442Z,97385.95
2023-03-04T09:57:59.000Z,97382.36
2023-03-04T10:00:43.124Z,97376.40
2023-03-04T10:03:23.701Z,97375.92
2023-03-04T10:06:01.326Z,97374.56
2023-03-04T10:08:42.042Z,97371.03
2023-03-04T10:11:18.866Z,97365.00
2023-03-04T10:14:20.274Z,97360.13
2023-03-04T10:16:58.493Z,97357.19
2023-03-04T10:19:54.469Z,97346.52
2023-03-04T10:22:33.771Z,97339.52
2023-03-04T10:25:30.800Z,97334.23
2023-03-04T10:28:09.737Z,97331.83
2023-03-04T10:30:53.064Z,97329.12
2023-03-04T10:33:23.896Z,97324.27
2023-03-04T10:36:00.272Z,97319.33
2023-03-04T10:38:34.964Z,97316.61
2023-03-04T10:41:16.941Z,97314.35
2023-03-04T10:43:51.081Z,97314.21
2023-03-04T10:46:22.118Z,97313.42
2023-03-04T10:48:51.400Z,97308.19
2023-03-04T10:51:29.398Z,97305.38
2023-03-04T10:54:10.073Z,97296.82
2023-03-04T10:56:45.820Z,97293.14
2023-03-04T10:59:33.659Z,97290.79
2023-03-04T11:02:23.272Z,97289.67
2023-03-04T11:05:26.755Z,97285.41
2023-03-04T11:07:58.729Z,97280.91
2023-03-04T11:10:43.368Z,97277.98
2023-03-04T11:13:11.387Z,97276.22
2023-03-04T11:16:01.446Z,97273.30
2023-03-04T11:18:44.528Z,97268.51
2023-03-04T11:21:17.950Z,97262.67
2023-03-04T11:23:59.062Z,97258.01
2023-03-04T11:26:50.519Z,97254.02
2023-03-04T11:29:21.070Z,97245.84
2023-03-04T11:31:53.828Z,97242.02
2023-03-04T11:34:38.426Z,97236.45
2023-03-04T11:37:24.853Z,97233.42
2023-03-04T11:39:59.573Z,97224.48
2023-03-04T11:42:33.687Z,97217.95
2023-03-04T11:45:02.046Z,97212.50
2023-03-04T11:47:33.363Z,97211.64
2023-03-04T11:50:20.450Z,97207.36
2023-03-04T11:52:55.373Z,97207.70
2023-03-04T11:55:44.218Z,97203.05
2023-03-04T11:58:31.777Z,97197.55
2023-03-04T12:01:12.979Z,97188.76
2023-03-04T12:04:05.156Z,97184.40
2023-03-04T12:07:03.065Z,97177.75
2023-03-04T12:09:53.560Z,97177.09
2023-03-04T12:12:22.551Z,97173.68
2023-03-04T12:15:09.400Z,97170.21
2023-03-04T12:17:50.259Z,97169.99
2023-03-04T12:20:44.958Z,97167.98
2023-03-04T12:23:13.424Z,97164.77
2023-03-04T12:25:47.072Z,97163.02
2023-03-04T12:28:22.389Z,97162.52
2023-03-04T12:31:06.008Z,97156.73
2023-03-04T12:33:47.257Z,97156.38
2023-03-04T12:36:16.065Z,97148.29
2023-03-04T12:39:05.106Z,97145.88
2023-03-04T12:41:42.969Z,97140.52
2023-03-04T12:44:17.303Z,97133.40
2023-03-04T12:47:11.703Z,97131.16
2023-03-04T12:49:42.933Z,97127.92
2023-03-04T12:52:19.881Z,97120.86
2023-03-04T12:54:54.978Z,97117.95
2023-03-04T12:57:31.967Z,97112.30
2023-03-04T13:00:09.723Z,97110.38
2023-03-04T13:03:00.783Z,97106.80
2023-03-04T13:05:38.011Z,97106.86
2023-03-04T13:08:43.972Z,97104.16
2023-03-04T13:11:31.403Z,97097.85
2023-03-04T13:14:08.429Z,97095.02
2023-03-04T13:16:42.012Z,97094.25
2023-03-04T13:19:43.435Z,97090.00
2023-03-04T13:22:31.163Z,97084.78
2023-03-04T13:25:02.770Z,97083.81
2023-03-04T13:27:46.532Z,97077.49
2023-03-04T13:30:32.998Z,97070.77
2023-03-04T13:33:11.317Z,97062.14
2023-03-04T13:35:54.920Z,97058.42
2023-03-04T13:38:25.282Z,97054.73
2023-03-04T13:41:14.900Z,97049.49
2023-03-04T13:43:45.978Z,97049.32
2023-03-04T13:46:20.936Z,97045.67
2023-03-04T13:48:52.646Z,97039.77
2023-03-04T13:51:44.339Z,97032.95
2023-03-04T13:54:27.055Z,97036.52
2023-03-04T13:57:01.548Z,97032.99
2023-03-04T13:59:38.882Z,97025.55
2023-03-04T14:02:22.799Z,97024.84
2023-03-04T14:04:54.201Z,97023.79
2023-03-04T14:07:37.334Z,97022.56
2023-03-04T14:10:08.437Z,97021.93
2023-03-04T14:12:41.128Z,97019.49
2023-03-04T14:15:26.331Z,97019.46
2023-03-04T14:17:58.025Z,97013.05
2023-03-04T14:20:37.378Z,97011.69
2023-03-04T14:23:23.382Z,97011.16
2023-03-04T14:25:51.761Z,97009.98
2023-03-04T14:28:21.345Z,97011.84
2023-03-04T14:30:57.153Z,97009.73
2023-03-04T14:33:30.918Z,97004.57
2023-03-04T14:36:03.256Z,97001.48
2023-03-04T14:38:38.413Z,96995.78
2023-03-04T14:41:18.565Z,96990.05
2023-03-04T14:43:57.312Z,96986.82
2023-03-04T14:46:31.266Z,96984.96
2023-03-04T14:49:00.449Z,96983.41
2023-03-04T14:51:53.415Z,96982.42
2023-03-04T14:54:37.128Z,96978.31
2023-03-04T14:57:30.177Z,96977.20
2023-03-04T15:00:25.184Z,96977.84
2023-03-04T15:03:00.405Z,96975.45
2023-03-04T15:05:34.295Z,96972.63
2023-03-04T15:08:38.347Z,96967.70
2023-03-04T15:11:08.432Z,96961.40
2023-03-04T15:13:55.191Z,96960.66
2023-03-04T15:16:26.957Z,96960.42
2023-03-04T15:19:23.702Z,96962.67
2023-03-04T15:22:04.855Z,96957.59
2023-03-04T15:24:33.455Z,96954.04
2023-03-04T15:27:04.699Z,96950.52
2023-03-04T15:29:33.215Z,96950.94
2023-03-04T15:32:02.156Z,96942.88
2023-03-04T15:34:32.140Z,96938.65
2023-03-04T15:37:01.217Z,96937.93
2023-03-04T15:39:30.337Z,96933.56
2023-03-04T15:41:58.690Z,96931.86
2023-03-04T15:44:27.519Z,96932.39
2023-03-04T15:46:56.296Z,96928.30
2023-03-04T15:49:24.650Z,96928.14
2023-03-04T15:51:53.859Z,96924.33
2023-03-04T15:54:26.825Z,96920.16
2023-03-04T15:56:57.831Z,96915.22
2023-03-04T15:59:26.357Z,96912.16
2023-03-04T16:01:54.988Z,96909.30
2023-03-04T16:04:23.702Z,96906.63
2023-03-04T16:06:51.918Z,96903.04
2023-03-04T16:09:21.936Z,96906.27
2023-03-04T16:11:51.289Z,96902.90
2023-03-04T16:14:20.145Z,96903.91
2023-03-04T16:16:50.910Z,96905.63
2023-03-04T16:19:19.244Z,96905.23
2023-03-04T16:21:48.292Z,96904.52
2023-03-04T16:24:19.884Z,96911.98
2023-03-04T16:26:48.341Z,96911.42
2023-03-04T16:29:17.078Z,96910.69
2023-03-04T16:31:46.424Z,96912.19
2023-03-04T16:34:15.093Z,96915.25
2023-03-04T16:36:45.016Z,96917.52
2023-03-04T16:39:21.398Z,96918.61
2023-03-04T16:41:51.513Z,96919.23
2023-03-04T16:44:20.784Z,96920.20
2023-03-04T16:46:49.266Z,96917.27
2023-03-04T16:49:17.709Z,96915.66
2023-03-04T16:51:50.682Z,96914.21
2023-03-04T16:54:28.272Z,96916.20
2023-03-04T16:57:00.298Z,96919.20
2023-03-04T16:59:29.690Z,96917.20
2023-03-04T17:01:58.705Z,96918.20
2023-03-04T17:04:27.378Z,96914.23
2023-03-04T17:06:55.632Z,96919.23
2023-03-04T17:09:24.594Z,96922.30
2023-03-04T17:11:53.925Z,96924.15
2023-03-04T17:14:23.114Z,96927.34
2023-03-04T17:16:51.178Z,96929.82
2023-03-04T17:19:19.500Z,96933.64
2023-03-04T17:21:47.603Z,96942.16
2023-03-04T17:24:15.855Z,96942.86
2023-03-04T17:26:44.110Z,96941.30
2023-03-04T17:29:12.274Z,96939.89
2023-03-04T17:31:40.678Z,96942.24
2023-03-04T17:34:09.257Z,96943.82
2023-03-04T17:36:37.359Z,96943.13
2023-03-04T17:39:07.275Z,96949.18
2023-03-04T17:41:36.311Z,96950.23
2023-03-04T17:44:06.088Z,96952.80
2023-03-04T17:46:34.406Z,96953.81
2023-03-04T17:49:02.829Z,96954.77
2023-03-04T17:51:39.268Z,96958.36
2023-03-04T17:54:08.712Z,96960.25
2023-03-04T17:56:39.607Z,96957.73
2023-03-04T17:59:12.378Z,96958.36
2023-03-04T18:01:40.511Z,96963.18
2023-03-04T18:04:08.657Z,96965.20
2023-03-04T18:06:37.143Z,96967.54
2023-03-04T18:09:06.109Z,96968.41
2023-03-04T18:11:38.317Z,96969.45
2023-03-04T18:14:06.597Z,96971.23
2023-03-04T18:16:35.238Z,96971.09
2023-03-04T18:19:04.868Z,96974.27
2023-03-04T18:21:33.015Z,96978.17
2023-03-04T18:24:02.211Z,96984.87
2023-03-04T18:26:30.931Z,96987.92
2023-03-04T18:28:58.988Z,96988.52
2023-03-04T18:31:32.557Z,96991.20
2023-03-04T18:34:02.170Z,96990.78
2023-03-04T18:36:30.786Z,96995.02
2023-03-04T18:38:59.720Z,96996.13
2023-03-04T18:41:28.432Z,96995.83
2023-03-04T18:43:56.598Z,96996.02
2023-03-04T18:46:44.453Z,97000.17
2023-03-04T18:49:14.816Z,96999.70
2023-03-04T18:51:43.082Z,96997.64
2023-03-04T18:54:11.364Z,96993.84
2023-03-04T18:56:55.846Z,96991.42
2023-03-04T18:59:31.780Z,96990.94
2023-03-04T19:02:05.317Z,96993.89
2023-03-04T19:04:33.646Z,96992.53
2023-03-04T19:07:01.856Z,96993.42
2023-03-04T19:09:30.173Z,96992.58
2023-03-04T19:11:58.632Z,96998.62
2023-03-04T19:14:27.332Z,96999.33
2023-03-04T19:16:55.946Z,96998.14
2023-03-04T19:19:25.227Z,96996.09
2023-03-04T19:21:53.786Z,96998.55
2023-03-04T19:24:22.145Z,96997.73
2023-03-04T19:26:50.845Z,97000.70
2023-03-04T19:29:19.999Z,97002.45
2023-03-04T19:31:48.079Z,97002.64
2023-03-04T19:34:16.432Z,97001.61
2023-03-04T19:36:45.147Z,97001.98
2023-03-04T19:39:15.756Z,97002.68
2023-03-04T19:41:44.530Z,97008.06
2023-03-04T19:44:12.603Z,97008.77
2023-03-04T19:46:41.082Z,97008.45
2023-03-04T19:49:10.289Z,97009.15
2023-03-04T19:51:38.804Z,97016.23
2023-03-04T19:54:07.983Z,97017.13
2023-03-04T19:56:36.191Z,97015.23
2023-03-04T19:59:04.508Z,97015.41
2023-03-04T20:01:35.655Z,97018.00
2023-03-04T20:04:10.402Z,97016.80
2023-03-04T20:06:42.026Z,97011.46
2023-03-04T20:09:11.644Z,97013.02
2023-03-04T20:11:56.237Z,97014.57
2023-03-04T20:14:30.718Z,97014.22
2023-03-04T20:17:02.820Z,97012.32
2023-03-04T20:19:32.514Z,97010.94
2023-03-04T20:22:01.758Z,97014.73
2023-03-04T20:24:30.009Z,97013.86
2023-03-04T20:26:58.971Z,97012.66
2023-03-04T20:29:29.206Z,97013.00
2023-03-04T20:31:58.268Z,97011.95
2023-03-04T20:34:27.356Z,97010.39
2023-03-04T20:36:55.430Z,97007.45
2023-03-04T20:39:29.610Z,97007.61
2023-03-04T20:41:59.568Z,97006.23
2023-03-04T20:44:28.096Z,97005.17
2023-03-04T20:46:56.327Z,97006.36
2023-03-04T20:49:27.168Z,97005.83
2023-03-04T20:52:06.609Z,97004.60
2023-03-04T20:54:39.174Z,97001.52
2023-03-04T20:57:08.370Z,96999.63
2023-03-04T20:59:38.072Z,97000.66
2023-03-04T21:02:08.796Z,97002.88
2023-03-04T21:04:36.796Z,97003.91
2023-03-04T21:07:04.722Z,97006.15
2023-03-04T21:09:33.408Z,97000.64
2023-03-04T21:12:01.792Z,96997.70
2023-03-04T21:14:32.657Z,96996.69
2023-03-04T21:17:03.703Z,96994.45
2023-03-04T21:19:36.246Z,96990.66
2023-03-04T21:22:04.511Z,96995.66
2023-03-04T21:24:35.002Z,96994.28
2023-03-04T21:27:04.744Z,96989.63
2023-03-04T21:29:32.945Z,96986.17
2023-03-04T21:32:22.400Z,96987.55
2023-03-04T21:34:54.606Z,96985.12
2023-03-04T21:37:25.149Z,96985.11
2023-03-04T21:39:54.591Z,96982.49
2023-03-04T21:42:22.891Z,96981.27
2023-03-04T21:44:52.045Z,96977.61
2023-03-04T21:47:21.719Z,96976.02
2023-03-04T21:49:50.315Z,96980.82
2023-03-04T21:52:20.372Z,96981.99
2023-03-04T21:54:48.926Z,96984.19
2023-03-04T21:57:17.606Z,96984.31
2023-03-04T21:59:45.675Z,96983.77
2023-03-04T22:02:20.354Z,96977.39
2023-03-04T22:04:48.815Z,96978.06
2023-03-04T22:07:17.021Z,96985.45
2023-03-04T22:09:45.199Z,96977.86
2023-03-04T22:12:15.858Z,96978.20
2023-03-04T22:14:44.506Z,96974.92
2023-03-04T22:17:12.841Z,96973.91
2023-03-04T22:19:40.954Z,96973.91
2023-03-04T22:22:09.191Z,96973.23
2023-03-04T22:24:37.343Z,96973.41
2023-03-04T22:27:05.539Z,96972.89
2023-03-04T22:29:33.615Z,96968.08
2023-03-04T22:32:02.415Z,96967.56
2023-03-04T22:34:30.591Z,96972.90
2023-03-04T22:36:58.810Z,96972.05
2023-03-04T22:39:26.925Z,96971.53
2023-03-04T22:41:55.502Z,96975.48
2023-03-04T22:44:23.869Z,96973.40
2023-03-04T22:46:52.475Z,96973.04
2023-03-04T22:49:20.930Z,96969.24
2023-03-04T22:51:49.477Z,96967.14
2023-03-04T22:54:19.213Z,96968.98
2023-03-04T22:56:47.727Z,96968.77
2023-03-04T22:59:16.433Z,96968.92
2023-03-04T23:01:44.784Z,96965.80
2023-03-04T23:04:13.014Z,96965.75
2023-03-04T23:06:41.142Z,96967.24
2023-03-04T23:09:09.288Z,96964.80
2023-03-04T23:11:39.074Z,96969.57
2023-03-04T23:14:09.249Z,96968.31
2023-03-04T23:16:42.693Z,96970.51
2023-03-04T23:19:16.804Z,96974.61
2023-03-04T23:21:45.226Z,96978.36
2023-03-04T23:24:14.704Z,96978.85
2023-03-04T23:26:43.696Z,96982.08
2023-03-04T23:29:15.400Z,96980.84
2023-03-04T23:31:44.614Z,96981.65
2023-03-04T23:34:13.648Z,96980.38
2023-03-04T23:36:42.247Z,96984.95
2023-03-04T23:39:12.414Z,96988.04
2023-03-04T23:41:40.803Z,96991.14
2023-03-04T23:44:11.068Z,96991.14
2023-03-04T23:46:40.128Z,96993.05
2023-03-04T23:49:11.529Z,96994.45
2023-03-04T23:51:41.145Z,96997.41
2023-03-04T23:54:09.588Z,96999.49
2023-03-04T23:56:38.460Z,96999.52
2023-03-04T23:59:08.003Z,96997.84
